createdAt,value
2018-10-07T00:00:18.154Z,18.17
2018-10-07T00:02:48.441Z,21.00
2018-10-07T00:05:18.743Z,19.77
2018-10-07T00:07:48.976Z,17.67
2018-10-07T00:10:19.616Z,17.70
2018-10-07T00:12:50.111Z,18.33
2018-10-07T00:15:20.403Z,17.27
2018-10-07T00:17:50.666Z,17.10
2018-10-07T00:20:20.910Z,17.23
2018-10-07T00:22:51.201Z,20.70
2018-10-07T00:25:21.532Z,17.47
2018-10-07T00:27:51.795Z,19.00
2018-10-07T00:30:22.118Z,19.30
2018-10-07T00:32:52.364Z,18.87
2018-10-07T00:35:22.664Z,17.07
2018-10-07T00:37:53.409Z,17.40
2018-10-07T00:40:23.686Z,17.83
2018-10-07T00:42:53.984Z,17.30
2018-10-07T00:45:24.262Z,17.47
2018-10-07T00:47:54.543Z,18.80
2018-10-07T00:50:24.840Z,18.10
2018-10-07T00:52:55.156Z,18.00
2018-10-07T00:55:25.438Z,21.73
2018-10-07T00:57:55.721Z,18.00
2018-10-07T01:00:25.975Z,19.27
2018-10-07T01:02:56.344Z,17.80
2018-10-07T01:05:26.649Z,17.13
2018-10-07T01:07:56.915Z,19.17
2018-10-07T01:10:27.216Z,16.53
2018-10-07T01:12:57.467Z,17.67
2018-10-07T01:15:27.731Z,19.33
2018-10-07T01:17:58.017Z,18.43
2018-10-07T01:20:28.353Z,21.77
2018-10-07T01:22:58.669Z,18.77
2018-10-07T01:25:28.989Z,21.53
2018-10-07T01:27:59.241Z,18.57
2018-10-07T01:30:29.513Z,18.60
2018-10-07T01:32:59.803Z,18.67
2018-10-07T01:35:30.112Z,17.30
2018-10-07T01:38:00.380Z,19.30
2018-10-07T01:40:30.710Z,19.37
2018-10-07T01:43:00.957Z,18.23
2018-10-07T01:45:31.248Z,19.50
2018-10-07T01:48:01.545Z,19.73
2018-10-07T01:50:31.848Z,19.00
2018-10-07T01:53:02.081Z,23.23
2018-10-07T01:55:32.355Z,17.97
2018-10-07T01:58:02.613Z,18.17
2018-10-07T02:00:32.936Z,17.23
2018-10-07T02:03:03.234Z,19.90
2018-10-07T02:05:33.464Z,17.03
2018-10-07T02:08:03.713Z,16.87
2018-10-07T02:10:34.008Z,18.07
2018-10-07T02:13:04.343Z,19.37
2018-10-07T02:15:34.678Z,19.73
2018-10-07T02:18:04.957Z,18.03
2018-10-07T02:20:35.252Z,17.97
2018-10-07T02:23:05.558Z,19.57
2018-10-07T02:25:35.868Z,18.47
2018-10-07T02:28:06.144Z,18.13
2018-10-07T02:30:36.416Z,18.77
2018-10-07T02:33:06.778Z,18.43
2018-10-07T02:35:37.104Z,16.90
2018-10-07T02:38:07.432Z,17.60
2018-10-07T02:40:38.772Z,17.10
2018-10-07T02:43:09.048Z,17.13
2018-10-07T02:45:39.800Z,18.60
2018-10-07T02:48:10.071Z,17.03
2018-10-07T02:50:41.130Z,19.13
2018-10-07T02:53:11.420Z,18.23
2018-10-07T02:55:41.692Z,17.67
2018-10-07T02:58:11.987Z,17.33
2018-10-07T03:00:42.305Z,17.53
2018-10-07T03:03:12.614Z,19.00
2018-10-07T03:05:42.868Z,17.07
2018-10-07T03:08:13.192Z,16.93
2018-10-07T03:10:43.494Z,18.67
2018-10-07T03:13:13.816Z,18.03
2018-10-07T03:15:44.136Z,22.37
2018-10-07T03:18:14.460Z,17.97
2018-10-07T03:20:44.792Z,16.80
2018-10-07T03:23:15.105Z,18.07
2018-10-07T03:25:45.395Z,17.80
2018-10-07T03:28:15.709Z,18.20
2018-10-07T03:30:45.979Z,19.13
2018-10-07T03:33:16.292Z,17.30
2018-10-07T03:35:46.540Z,20.47
2018-10-07T03:38:16.883Z,16.53
2018-10-07T03:40:47.192Z,17.50
2018-10-07T03:43:17.529Z,19.43
2018-10-07T03:45:47.779Z,18.23
2018-10-07T03:48:18.078Z,16.27
2018-10-07T03:50:48.359Z,16.93
2018-10-07T03:53:18.785Z,17.13
2018-10-07T03:55:49.256Z,18.27
2018-10-07T03:58:19.590Z,20.10
2018-10-07T04:00:49.964Z,18.17
2018-10-07T04:03:20.287Z,17.67
2018-10-07T04:05:50.615Z,17.60
2018-10-07T04:08:21.004Z,18.07
2018-10-07T04:10:51.291Z,19.60
2018-10-07T04:13:21.596Z,19.40
2018-10-07T04:15:51.934Z,19.53
2018-10-07T04:18:22.188Z,18.93
2018-10-07T04:20:52.524Z,18.53
2018-10-07T04:23:22.769Z,18.87
2018-10-07T04:25:53.046Z,18.97
2018-10-07T04:28:23.306Z,18.90
2018-10-07T04:30:53.580Z,18.93
2018-10-07T04:33:23.867Z,18.77
2018-10-07T04:35:54.140Z,18.20
2018-10-07T04:38:24.437Z,18.87
2018-10-07T04:40:54.672Z,17.97
2018-10-07T04:43:24.970Z,18.30
2018-10-07T04:45:55.229Z,18.07
2018-10-07T04:48:25.521Z,18.90
2018-10-07T04:50:55.777Z,20.83
2018-10-07T04:53:26.324Z,19.43
2018-10-07T04:55:56.610Z,18.73
2018-10-07T04:58:26.870Z,19.13
2018-10-07T05:00:57.180Z,20.67
2018-10-07T05:03:27.484Z,24.67
2018-10-07T05:05:57.802Z,26.23
2018-10-07T05:08:28.263Z,24.10
2018-10-07T05:11:01.788Z,22.73
2018-10-07T05:13:56.592Z,23.87
2018-10-07T05:16:38.503Z,20.83
2018-10-07T05:19:08.902Z,19.93
2018-10-07T05:21:39.172Z,25.73
2018-10-07T05:24:09.517Z,38.47
2018-10-07T05:26:39.805Z,26.47
2018-10-07T05:29:10.122Z,39.33
2018-10-07T05:31:40.461Z,25.63
2018-10-07T05:34:10.875Z,22.77
2018-10-07T05:36:41.134Z,24.83
2018-10-07T05:39:12.752Z,19.90
2018-10-07T05:41:43.013Z,19.10
2018-10-07T05:44:13.317Z,19.57
2018-10-07T05:46:43.568Z,18.93
2018-10-07T05:49:13.844Z,22.23
2018-10-07T05:51:44.104Z,20.40
2018-10-07T05:54:14.369Z,20.63
2018-10-07T05:56:44.692Z,19.90
2018-10-07T05:59:15.307Z,20.67
2018-10-07T06:01:46.213Z,21.07
2018-10-07T06:04:30.157Z,22.27
2018-10-07T06:07:02.986Z,19.77
2018-10-07T06:09:36.137Z,21.80
2018-10-07T06:12:06.623Z,22.47
2018-10-07T06:14:53.680Z,20.53
2018-10-07T06:17:23.912Z,24.83
2018-10-07T06:19:54.205Z,21.37
2018-10-07T06:22:25.121Z,21.10
2018-10-07T06:24:55.509Z,29.90
2018-10-07T06:27:25.900Z,27.87
2018-10-07T06:29:56.229Z,22.70
2018-10-07T06:32:26.476Z,21.60
2018-10-07T06:34:56.779Z,43.90
2018-10-07T06:37:27.060Z,37.60
2018-10-07T06:39:57.452Z,22.00
2018-10-07T06:42:27.740Z,21.23
2018-10-07T06:44:58.104Z,21.17
2018-10-07T06:47:28.437Z,21.07
2018-10-07T06:49:58.718Z,20.80
2018-10-07T06:52:29.057Z,20.37
2018-10-07T06:54:59.389Z,20.63
2018-10-07T06:57:30.031Z,22.53
2018-10-07T07:00:00.772Z,23.77
2018-10-07T07:02:31.060Z,20.60
2018-10-07T07:05:01.321Z,23.17
2018-10-07T07:07:31.654Z,20.80
2018-10-07T07:10:01.980Z,21.23
2018-10-07T07:12:32.223Z,20.97
2018-10-07T07:15:02.508Z,20.30
2018-10-07T07:17:32.848Z,20.60
2018-10-07T07:20:03.191Z,22.27
2018-10-07T07:22:33.408Z,21.27
2018-10-07T07:25:03.726Z,21.70
2018-10-07T07:27:33.979Z,22.30
2018-10-07T07:30:04.359Z,21.43
2018-10-07T07:32:34.623Z,22.63
2018-10-07T07:35:05.001Z,22.70
2018-10-07T07:37:35.264Z,24.47
2018-10-07T07:40:05.683Z,22.10
2018-10-07T07:42:35.952Z,22.60
2018-10-07T07:45:06.284Z,24.57
2018-10-07T07:47:36.540Z,22.97
2018-10-07T07:50:06.873Z,22.07
2018-10-07T07:52:37.132Z,23.77
2018-10-07T07:55:07.907Z,22.90
2018-10-07T07:57:38.224Z,22.80
2018-10-07T08:00:08.537Z,24.10
2018-10-07T08:02:38.799Z,26.63
2018-10-07T08:05:09.116Z,26.43
2018-10-07T08:07:39.428Z,26.23
2018-10-07T08:10:09.768Z,23.80
2018-10-07T08:12:40.682Z,21.63
2018-10-07T08:15:11.006Z,22.00
2018-10-07T08:17:41.281Z,22.03
2018-10-07T08:20:11.568Z,23.43
2018-10-07T08:22:41.856Z,20.43
2018-10-07T08:25:12.186Z,21.20
2018-10-07T08:27:42.497Z,20.43
2018-10-07T08:30:12.783Z,20.47
2018-10-07T08:32:43.088Z,21.50
2018-10-07T08:35:13.475Z,21.47
2018-10-07T08:37:43.717Z,20.97
2018-10-07T08:40:13.961Z,20.27
2018-10-07T08:42:44.270Z,27.43
2018-10-07T08:45:14.580Z,20.90
2018-10-07T08:47:44.884Z,22.03
2018-10-07T08:50:15.192Z,25.53
2018-10-07T08:52:45.575Z,22.10
2018-10-07T08:55:15.881Z,23.60
2018-10-07T08:57:46.222Z,21.90
2018-10-07T09:00:16.488Z,23.70
2018-10-07T09:02:47.097Z,23.10
2018-10-07T09:05:17.376Z,21.90
2018-10-07T09:07:47.699Z,22.93
2018-10-07T09:10:18.013Z,22.53
2018-10-07T09:12:48.289Z,23.33
2018-10-07T09:15:18.573Z,23.30
2018-10-07T09:17:48.912Z,22.50
2018-10-07T09:20:19.257Z,23.00
2018-10-07T09:22:49.554Z,22.13
2018-10-07T09:25:19.818Z,23.70
2018-10-07T09:27:52.033Z,21.83
2018-10-07T09:30:22.366Z,25.13
2018-10-07T09:32:52.767Z,28.40
2018-10-07T09:35:22.954Z,24.80
2018-10-07T09:37:53.261Z,23.83
2018-10-07T09:40:23.543Z,23.50
2018-10-07T09:42:53.846Z,22.60
2018-10-07T09:45:24.214Z,22.43
2018-10-07T09:47:54.540Z,22.63
2018-10-07T09:50:24.821Z,22.87
2018-10-07T09:52:55.115Z,26.43
2018-10-07T09:55:25.431Z,37.77
2018-10-07T09:57:55.854Z,37.73
2018-10-07T10:00:31.253Z,27.83
2018-10-07T10:03:01.532Z,25.87
2018-10-07T10:05:31.860Z,25.30
2018-10-07T10:08:02.159Z,23.60
2018-10-07T10:10:32.516Z,27.83
2018-10-07T10:13:02.799Z,22.27
2018-10-07T10:15:33.150Z,22.03
2018-10-07T10:18:07.245Z,23.77
2018-10-07T10:21:01.677Z,24.67
2018-10-07T10:24:50.285Z,25.83
2018-10-07T10:27:30.387Z,24.80
2018-10-07T10:30:12.511Z,25.83
2018-10-07T10:33:00.987Z,25.77
2018-10-07T10:36:49.694Z,25.97
2018-10-07T10:39:32.400Z,27.70
2018-10-07T10:42:09.592Z,25.67
2018-10-07T10:44:49.385Z,27.03
2018-10-07T10:47:43.476Z,26.47
2018-10-07T10:50:34.089Z,26.77
2018-10-07T10:53:15.376Z,26.50
2018-10-07T10:56:16.799Z,25.73
2018-10-07T11:01:15.225Z,26.33
2018-10-07T11:03:56.341Z,95.97
2018-10-07T11:06:45.847Z,50.23
2018-10-07T11:10:10.633Z,31.77
2018-10-07T11:12:53.954Z,27.37
2018-10-07T11:15:32.002Z,28.60
2018-10-07T11:18:15.200Z,28.40
2018-10-07T11:21:32.889Z,27.40
2018-10-07T11:24:13.503Z,28.60
2018-10-07T11:29:00.579Z,27.77
2018-10-07T11:32:21.119Z,27.73
2018-10-07T11:37:15.422Z,28.47
2018-10-07T11:40:02.049Z,28.53
2018-10-07T11:43:42.057Z,30.63
2018-10-07T11:48:31.367Z,29.87
2018-10-07T11:51:24.149Z,30.97
2018-10-07T11:53:58.912Z,29.17
2018-10-07T11:56:29.205Z,29.23
2018-10-07T11:58:59.509Z,28.30
2018-10-07T12:01:29.748Z,28.77
2018-10-07T12:04:00.081Z,30.23
2018-10-07T12:06:30.397Z,29.07
2018-10-07T12:09:00.696Z,30.37
2018-10-07T12:11:30.986Z,29.00
2018-10-07T12:14:01.272Z,28.13
2018-10-07T12:16:31.683Z,37.90
2018-10-07T12:19:01.879Z,30.93
2018-10-07T12:21:32.166Z,28.67
2018-10-07T12:24:02.549Z,28.23
2018-10-07T12:26:32.835Z,29.00
2018-10-07T12:29:03.368Z,31.40
2018-10-07T12:31:33.581Z,30.17
2018-10-07T12:34:03.919Z,29.20
2018-10-07T12:36:34.277Z,30.90
2018-10-07T12:39:05.197Z,29.57
2018-10-07T12:41:35.491Z,29.60
2018-10-07T12:44:05.767Z,30.07
2018-10-07T12:46:36.082Z,30.90
2018-10-07T12:49:06.376Z,31.07
2018-10-07T12:51:36.625Z,29.67
2018-10-07T12:54:06.954Z,29.73
2018-10-07T12:56:37.224Z,29.40
2018-10-07T12:59:08.196Z,30.33
2018-10-07T13:01:38.502Z,30.90
2018-10-07T13:04:08.841Z,28.67
2018-10-07T13:06:39.094Z,31.00
2018-10-07T13:09:12.262Z,30.30
2018-10-07T13:11:42.548Z,29.77
2018-10-07T13:14:12.857Z,30.33
2018-10-07T13:16:43.108Z,29.87
2018-10-07T13:19:13.428Z,30.10
2018-10-07T13:21:43.667Z,30.80
2018-10-07T13:24:13.962Z,32.00
2018-10-07T13:26:44.276Z,29.10
2018-10-07T13:29:14.568Z,29.73
2018-10-07T13:31:44.856Z,31.00
2018-10-07T13:34:15.136Z,29.47
2018-10-07T13:36:45.480Z,31.13
2018-10-07T13:39:15.798Z,29.83
2018-10-07T13:41:46.121Z,30.43
2018-10-07T13:44:16.397Z,30.47
2018-10-07T13:46:46.757Z,29.90
2018-10-07T13:49:17.128Z,30.37
2018-10-07T13:51:48.292Z,29.23
2018-10-07T13:54:18.649Z,30.10
2018-10-07T13:56:48.960Z,31.20
2018-10-07T13:59:19.261Z,29.57
2018-10-07T14:01:49.520Z,29.03
2018-10-07T14:04:19.977Z,30.07
2018-10-07T14:06:50.306Z,29.83
2018-10-07T14:09:20.628Z,30.03
2018-10-07T14:11:50.925Z,29.70
2018-10-07T14:14:21.230Z,28.83
2018-10-07T14:16:51.517Z,29.43
2018-10-07T14:19:21.844Z,30.20
2018-10-07T14:21:52.220Z,29.10
2018-10-07T14:24:22.598Z,30.70
2018-10-07T14:26:52.930Z,29.97
2018-10-07T14:29:23.221Z,31.00
2018-10-07T14:31:53.516Z,31.90
2018-10-07T14:34:23.803Z,32.33
2018-10-07T14:36:54.117Z,31.37
2018-10-07T14:39:24.427Z,31.80
2018-10-07T14:41:54.732Z,30.97
2018-10-07T14:44:25.051Z,32.90
2018-10-07T14:46:55.344Z,32.20
2018-10-07T14:49:25.745Z,34.03
2018-10-07T14:51:55.987Z,35.70
2018-10-07T14:54:26.313Z,35.47
2018-10-07T14:56:56.620Z,38.20
2018-10-07T14:59:26.926Z,39.90
2018-10-07T15:01:57.227Z,38.93
2018-10-07T15:04:27.486Z,38.80
2018-10-07T15:06:57.812Z,36.43
2018-10-07T15:09:28.190Z,38.70
2018-10-07T15:11:58.458Z,38.60
2018-10-07T15:14:28.728Z,38.40
2018-10-07T15:16:59.073Z,39.63
2018-10-07T15:19:29.369Z,41.10
2018-10-07T15:21:59.669Z,42.17
2018-10-07T15:24:29.981Z,42.90
2018-10-07T15:27:00.293Z,45.63
2018-10-07T15:29:30.735Z,44.27
2018-10-07T15:32:00.932Z,43.70
2018-10-07T15:34:31.238Z,45.47
2018-10-07T15:37:01.622Z,44.20
2018-10-07T15:39:31.901Z,44.97
2018-10-07T15:42:02.283Z,43.10
2018-10-07T15:44:32.572Z,41.63
2018-10-07T15:47:02.905Z,44.07
2018-10-07T15:49:33.240Z,45.07
2018-10-07T15:52:03.564Z,46.87
2018-10-07T15:54:33.916Z,46.07
2018-10-07T15:57:04.225Z,48.03
2018-10-07T15:59:34.488Z,45.30
2018-10-07T16:02:04.812Z,44.97
2018-10-07T16:04:35.092Z,44.50
2018-10-07T16:07:05.525Z,44.10
2018-10-07T16:09:35.847Z,45.17
2018-10-07T16:12:06.196Z,45.53
2018-10-07T16:14:39.322Z,44.83
2018-10-07T16:17:21.717Z,43.43
2018-10-07T16:19:54.237Z,43.40
2018-10-07T16:22:25.324Z,43.53
2018-10-07T16:24:55.596Z,43.50
2018-10-07T16:27:25.899Z,47.03
2018-10-07T16:29:56.296Z,44.60
2018-10-07T16:32:26.568Z,43.37
2018-10-07T16:34:56.913Z,41.33
2018-10-07T16:37:27.250Z,41.73
2018-10-07T16:39:57.553Z,41.90
2018-10-07T16:42:27.861Z,64.43
2018-10-07T16:44:58.172Z,59.23
2018-10-07T16:47:28.576Z,54.70
2018-10-07T16:49:58.985Z,57.63
2018-10-07T16:52:29.331Z,51.97
2018-10-07T16:54:59.625Z,48.00
2018-10-07T16:57:29.964Z,49.90
2018-10-07T17:00:00.215Z,49.23
2018-10-07T17:02:30.481Z,52.10
2018-10-07T17:05:00.820Z,48.20
2018-10-07T17:07:31.239Z,50.30
2018-10-07T17:10:01.518Z,53.97
2018-10-07T17:12:31.833Z,255.00
2018-10-07T17:15:02.144Z,60.00
2018-10-07T17:17:33.185Z,46.70
2018-10-07T17:20:03.924Z,44.80
2018-10-07T17:22:34.488Z,44.80
2018-10-07T17:25:04.816Z,45.37
2018-10-07T17:27:35.312Z,46.17
2018-10-07T17:30:05.716Z,45.87
2018-10-07T17:32:35.987Z,48.40
2018-10-07T17:35:06.343Z,46.40
2018-10-07T17:37:36.637Z,46.47
2018-10-07T17:40:07.255Z,48.83
2018-10-07T17:42:37.537Z,45.77
2018-10-07T17:45:07.824Z,48.27
2018-10-07T17:47:38.140Z,45.67
2018-10-07T17:50:08.463Z,47.93
2018-10-07T17:52:38.797Z,45.93
2018-10-07T17:55:09.396Z,47.93
2018-10-07T17:57:39.672Z,46.87
2018-10-07T18:00:10.064Z,44.80
2018-10-07T18:02:40.424Z,47.90
2018-10-07T18:05:10.761Z,43.33
2018-10-07T18:07:41.163Z,45.07
2018-10-07T18:10:11.552Z,44.03
2018-10-07T18:12:41.971Z,45.27
2018-10-07T18:15:12.322Z,44.93
2018-10-07T18:17:42.836Z,45.60
2018-10-07T18:20:13.470Z,46.47
2018-10-07T18:22:43.877Z,45.97
2018-10-07T18:25:14.187Z,46.10
2018-10-07T18:27:44.530Z,46.37
2018-10-07T18:30:14.986Z,46.97
2018-10-07T18:32:45.367Z,49.10
2018-10-07T18:35:15.782Z,46.40
2018-10-07T18:37:46.148Z,48.17
2018-10-07T18:40:16.675Z,47.33
2018-10-07T18:42:46.950Z,44.20
2018-10-07T18:45:17.358Z,45.67
2018-10-07T18:47:47.795Z,47.03
2018-10-07T18:50:18.282Z,47.00
2018-10-07T18:52:48.969Z,47.37
2018-10-07T18:55:19.398Z,43.87
2018-10-07T18:57:49.825Z,47.33
2018-10-07T19:00:20.269Z,46.00
2018-10-07T19:02:51.192Z,47.57
2018-10-07T19:05:21.576Z,51.10
2018-10-07T19:07:52.220Z,49.77
2018-10-07T19:10:22.669Z,46.33
2018-10-07T19:12:53.437Z,49.53
2018-10-07T19:15:23.909Z,46.53
2018-10-07T19:17:54.704Z,45.67
2018-10-07T19:20:25.398Z,47.40
2018-10-07T19:22:56.374Z,47.20
2018-10-07T19:25:26.796Z,46.70
2018-10-07T19:27:57.254Z,47.13
2018-10-07T19:30:27.731Z,48.10
2018-10-07T19:32:58.589Z,48.27
2018-10-07T19:35:29.105Z,46.30
2018-10-07T19:37:59.512Z,44.87
2018-10-07T19:40:29.892Z,45.30
2018-10-07T19:43:00.360Z,47.13
2018-10-07T19:45:30.708Z,48.47
2018-10-07T19:48:01.417Z,48.20
2018-10-07T19:50:31.781Z,45.57
2018-10-07T19:53:02.113Z,47.80
2018-10-07T19:55:32.450Z,43.97
2018-10-07T19:58:02.770Z,45.27
2018-10-07T20:00:33.101Z,46.53
2018-10-07T20:03:03.530Z,47.90
2018-10-07T20:05:33.854Z,46.70
2018-10-07T20:08:04.148Z,47.43
2018-10-07T20:10:34.469Z,46.20
2018-10-07T20:13:04.821Z,48.43
2018-10-07T20:15:35.149Z,50.17
2018-10-07T20:18:05.981Z,46.67
2018-10-07T20:20:36.430Z,48.50
2018-10-07T20:23:07.176Z,49.63
2018-10-07T20:25:37.513Z,48.70
2018-10-07T20:28:07.917Z,48.33
2018-10-07T20:30:38.201Z,48.47
2018-10-07T20:33:08.715Z,48.90
2018-10-07T20:35:39.000Z,49.57
2018-10-07T20:38:09.356Z,50.23
2018-10-07T20:40:39.799Z,51.03
2018-10-07T20:43:09.998Z,49.03
2018-10-07T20:45:40.258Z,51.43
2018-10-07T20:48:10.865Z,51.97
2018-10-07T20:50:41.157Z,48.67
2018-10-07T20:53:11.469Z,47.07
2018-10-07T20:55:41.762Z,50.27
2018-10-07T20:58:12.369Z,49.87
2018-10-07T21:00:42.708Z,48.80
2018-10-07T21:03:13.169Z,51.60
2018-10-07T21:05:43.434Z,51.57
2018-10-07T21:08:13.810Z,51.27
2018-10-07T21:10:44.168Z,50.67
2018-10-07T21:13:14.487Z,50.43
2018-10-07T21:15:44.846Z,52.93
2018-10-07T21:18:15.135Z,51.97
2018-10-07T21:20:45.476Z,53.60
2018-10-07T21:23:15.783Z,55.03
2018-10-07T21:25:46.147Z,51.13
2018-10-07T21:28:16.436Z,52.37
2018-10-07T21:30:46.741Z,53.70
2018-10-07T21:33:17.046Z,52.10
2018-10-07T21:35:47.352Z,53.53
2018-10-07T21:38:17.636Z,51.93
2018-10-07T21:40:47.952Z,50.83
2018-10-07T21:43:18.237Z,50.37
2018-10-07T21:45:48.592Z,49.80
2018-10-07T21:48:19.345Z,51.17
2018-10-07T21:50:49.665Z,49.67
2018-10-07T21:53:19.976Z,48.97
2018-10-07T21:55:50.272Z,50.93
2018-10-07T21:58:20.576Z,50.80
2018-10-07T22:00:50.924Z,50.80
2018-10-07T22:03:21.241Z,49.33
2018-10-07T22:05:51.666Z,47.27
2018-10-07T22:08:22.020Z,47.80
2018-10-07T22:10:52.382Z,47.03
2018-10-07T22:13:22.759Z,48.50
2018-10-07T22:15:53.120Z,49.30
2018-10-07T22:18:23.483Z,47.27
2018-10-07T22:20:53.798Z,47.50
2018-10-07T22:23:24.109Z,49.20
2018-10-07T22:25:54.484Z,47.40
2018-10-07T22:28:24.910Z,49.87
2018-10-07T22:33:30.786Z,49.63
2018-10-07T22:36:01.113Z,47.90
2018-10-07T22:38:31.486Z,48.17
2018-10-07T22:41:01.822Z,49.13
2018-10-07T22:43:32.155Z,46.43
2018-10-07T22:46:02.455Z,48.10
2018-10-07T22:48:33.103Z,48.23
2018-10-07T22:51:03.398Z,49.00
2018-10-07T22:53:33.713Z,48.00
2018-10-07T22:56:04.028Z,48.23
2018-10-07T22:58:34.344Z,50.07
2018-10-07T23:01:04.649Z,50.87
2018-10-07T23:03:35.021Z,52.63
2018-10-07T23:06:05.441Z,49.37
2018-10-07T23:08:35.822Z,48.97
2018-10-07T23:11:06.392Z,49.73
2018-10-07T23:13:36.742Z,48.13
2018-10-07T23:16:07.137Z,50.67
2018-10-07T23:18:37.506Z,48.70
2018-10-07T23:21:07.861Z,51.03
2018-10-07T23:23:38.211Z,53.37
2018-10-07T23:26:08.577Z,50.00
2018-10-07T23:28:39.002Z,51.93
2018-10-07T23:31:09.326Z,49.80
2018-10-07T23:33:39.735Z,52.67
2018-10-07T23:36:10.147Z,51.87
2018-10-07T23:38:40.573Z,50.97
2018-10-07T23:41:10.981Z,50.27
2018-10-07T23:43:41.301Z,51.20
2018-10-07T23:46:11.673Z,51.27
2018-10-07T23:48:42.081Z,49.47
2018-10-07T23:51:12.494Z,51.20
2018-10-07T23:53:42.802Z,52.20
2018-10-07T23:56:13.170Z,47.87
2018-10-07T23:58:43.502Z,49.63
